createdAt,value
2019-04-28T00:01:34.896Z,18.07
2019-04-28T00:04:04.660Z,17.13
2019-04-28T00:06:34.440Z,17.50
2019-04-28T00:09:05.028Z,16.80
2019-04-28T00:11:34.690Z,17.23
2019-04-28T00:14:04.209Z,18.20
2019-04-28T00:16:33.681Z,17.42
2019-04-28T00:19:03.265Z,16.50
2019-04-28T00:21:41.565Z,15.60
2019-04-28T00:24:25.532Z,16.40
2019-04-28T00:27:01.646Z,15.32
2019-04-28T00:29:38.660Z,15.80
2019-04-28T00:32:02.124Z,16.32
2019-04-28T00:34:31.576Z,16.32
2019-04-28T00:37:21.104Z,16.10
2019-04-28T00:39:51.046Z,15.60
2019-04-28T00:42:22.614Z,15.28
2019-04-28T00:44:51.633Z,16.02
2019-04-28T00:47:21.166Z,16.77
2019-04-28T00:49:51.942Z,16.97
2019-04-28T00:52:22.275Z,15.60
2019-04-28T00:54:52.518Z,15.98
2019-04-28T00:57:22.608Z,16.30
2019-04-28T00:59:58.080Z,16.50
2019-04-28T01:02:31.009Z,17.50
2019-04-28T01:05:01.551Z,16.33
2019-04-28T01:07:33.003Z,16.95
2019-04-28T01:10:03.088Z,16.23
2019-04-28T01:12:32.511Z,16.73
2019-04-28T01:15:04.794Z,15.93
2019-04-28T01:18:04.738Z,15.80
2019-04-28T01:20:34.198Z,16.23
2019-04-28T01:23:03.607Z,16.12
2019-04-28T01:25:33.877Z,15.60
2019-04-28T01:28:03.424Z,15.05
2019-04-28T01:30:50.730Z,15.50
2019-04-28T01:33:44.898Z,15.10
2019-04-28T01:36:14.369Z,15.68
2019-04-28T01:38:43.771Z,14.77
2019-04-28T01:41:13.383Z,14.78
2019-04-28T01:43:42.982Z,13.63
2019-04-28T01:46:12.449Z,12.93
2019-04-28T01:48:42.201Z,11.43
2019-04-28T01:51:11.621Z,12.25
2019-04-28T01:53:41.071Z,12.25
2019-04-28T01:56:10.771Z,12.05
2019-04-28T01:58:40.431Z,11.57
2019-04-28T02:01:11.092Z,11.67
2019-04-28T02:03:40.776Z,11.57
2019-04-28T02:06:10.183Z,10.48
2019-04-28T02:08:40.125Z,10.18
2019-04-28T02:11:10.170Z,10.48
2019-04-28T02:13:39.900Z,10.55
2019-04-28T02:16:09.802Z,9.80
2019-04-28T02:18:39.988Z,10.85
2019-04-28T02:21:39.552Z,10.40
2019-04-28T02:24:26.856Z,10.60
2019-04-28T02:26:56.395Z,10.25
2019-04-28T02:29:25.856Z,9.98
2019-04-28T02:31:55.628Z,10.47
2019-04-28T02:34:25.058Z,10.32
2019-04-28T02:36:54.465Z,9.98
2019-04-28T02:39:24.286Z,10.23
2019-04-28T02:41:53.739Z,11.22
2019-04-28T02:44:23.746Z,10.82
2019-04-28T02:46:53.851Z,11.03
2019-04-28T02:49:31.805Z,10.67
2019-04-28T02:52:10.742Z,10.38
2019-04-28T02:54:40.453Z,10.58
2019-04-28T02:57:10.808Z,10.45
2019-04-28T02:59:44.535Z,10.28
2019-04-28T03:02:11.699Z,10.28
2019-04-28T03:04:41.204Z,10.35
2019-04-28T03:07:11.429Z,9.83
2019-04-28T03:09:42.204Z,9.73
2019-04-28T03:12:11.616Z,9.15
2019-04-28T03:14:44.034Z,9.20
2019-04-28T03:17:12.225Z,9.15
2019-04-28T03:19:41.958Z,9.68
2019-04-28T03:22:11.782Z,9.83
2019-04-28T03:24:42.333Z,9.38
2019-04-28T03:27:23.268Z,9.35
2019-04-28T03:29:56.983Z,9.08
2019-04-28T03:32:45.705Z,9.38
2019-04-28T03:35:04.524Z,9.23
2019-04-28T03:37:34.016Z,9.35
2019-04-28T03:40:03.957Z,8.95
2019-04-28T03:42:33.380Z,9.33
2019-04-28T03:45:04.405Z,9.60
2019-04-28T03:47:33.781Z,9.33
2019-04-28T03:50:03.271Z,9.00
2019-04-28T03:52:33.032Z,9.03
2019-04-28T03:55:02.526Z,8.93
2019-04-28T03:57:32.000Z,10.40
2019-04-28T04:00:01.905Z,10.45
2019-04-28T04:02:31.718Z,10.50
2019-04-28T04:05:03.799Z,10.10
2019-04-28T04:07:32.396Z,10.00
2019-04-28T04:10:11.190Z,10.80
2019-04-28T04:12:53.352Z,10.78
2019-04-28T04:15:48.646Z,10.83
2019-04-28T04:18:21.073Z,10.63
2019-04-28T04:20:51.401Z,11.08
2019-04-28T04:23:23.254Z,10.90
2019-04-28T04:25:52.466Z,11.03
2019-04-28T04:28:21.949Z,11.00
2019-04-28T04:30:51.486Z,10.82
2019-04-28T04:33:21.099Z,10.87
2019-04-28T04:35:51.667Z,10.78
2019-04-28T04:38:21.961Z,11.00
2019-04-28T04:40:51.627Z,11.43
2019-04-28T04:43:23.324Z,11.20
2019-04-28T04:46:14.188Z,10.80
2019-04-28T04:48:44.700Z,10.58
2019-04-28T04:51:14.107Z,10.58
2019-04-28T04:53:43.555Z,10.78
2019-04-28T04:56:13.418Z,10.60
2019-04-28T04:58:42.882Z,10.50
2019-04-28T05:01:34.284Z,10.58
2019-04-28T05:04:16.303Z,10.75
2019-04-28T05:06:45.751Z,10.50
2019-04-28T05:09:15.432Z,10.70
2019-04-28T05:11:44.856Z,10.72
2019-04-28T05:14:14.448Z,10.10
2019-04-28T05:16:44.277Z,10.80
2019-04-28T05:19:13.818Z,10.58
2019-04-28T05:21:43.502Z,10.60
2019-04-28T05:24:37.662Z,10.53
2019-04-28T05:27:07.334Z,10.05
2019-04-28T05:29:36.891Z,9.78
2019-04-28T05:32:06.672Z,10.35
2019-04-28T05:34:39.849Z,11.35
2019-04-28T05:37:07.247Z,10.30
2019-04-28T05:39:38.625Z,10.90
2019-04-28T05:42:11.031Z,10.53
2019-04-28T05:44:40.625Z,9.55
2019-04-28T05:47:10.075Z,9.35
2019-04-28T05:50:01.490Z,9.73
2019-04-28T05:52:52.734Z,8.03
2019-04-28T05:55:27.998Z,9.50
2019-04-28T05:58:09.877Z,9.15
2019-04-28T06:01:01.193Z,9.48
2019-04-28T06:03:31.856Z,8.27
2019-04-28T06:06:01.307Z,8.10
2019-04-28T06:08:40.741Z,8.03
2019-04-28T06:11:30.224Z,7.90
2019-04-28T06:13:59.971Z,7.85
2019-04-28T06:16:30.418Z,7.00
2019-04-28T06:19:00.638Z,6.62
2019-04-28T06:21:30.084Z,7.03
2019-04-28T06:23:59.914Z,6.80
2019-04-28T06:26:29.460Z,6.62
2019-04-28T06:28:59.113Z,6.33
2019-04-28T06:31:28.612Z,6.53
2019-04-28T06:33:58.187Z,6.17
2019-04-28T06:36:27.905Z,6.00
2019-04-28T06:38:57.447Z,6.40
2019-04-28T06:41:26.916Z,5.50
2019-04-28T06:43:56.633Z,5.65
2019-04-28T06:46:26.040Z,5.57
2019-04-28T06:48:55.494Z,6.25
2019-04-28T06:51:25.273Z,6.28
2019-04-28T06:53:54.737Z,5.70
2019-04-28T06:56:24.179Z,6.07
2019-04-28T06:58:59.291Z,5.22
2019-04-28T07:01:25.015Z,10.35
2019-04-28T07:03:54.476Z,5.58
2019-04-28T07:06:24.009Z,5.20
2019-04-28T07:08:53.606Z,5.20
2019-04-28T07:11:23.088Z,4.72
2019-04-28T07:13:52.562Z,5.20
2019-04-28T07:16:22.280Z,5.22
2019-04-28T07:18:51.789Z,5.53
2019-04-28T07:21:43.270Z,5.70
2019-04-28T07:24:12.833Z,6.03
2019-04-28T07:26:42.631Z,6.70
2019-04-28T07:29:12.100Z,6.17
2019-04-28T07:31:41.585Z,6.12
2019-04-28T07:34:11.205Z,6.33
2019-04-28T07:36:40.697Z,5.90
2019-04-28T07:39:10.228Z,6.10
2019-04-28T07:41:39.944Z,5.80
2019-04-28T07:44:09.471Z,5.95
2019-04-28T07:46:38.901Z,23.15
2019-04-28T07:49:08.472Z,6.10
2019-04-28T07:51:54.669Z,6.10
2019-04-28T07:54:24.216Z,6.40
2019-04-28T07:56:53.845Z,6.25
2019-04-28T07:59:23.362Z,6.03
2019-04-28T08:01:52.818Z,5.87
2019-04-28T08:04:22.442Z,5.92
2019-04-28T08:06:51.974Z,5.62
2019-04-28T08:09:21.744Z,5.67
2019-04-28T08:11:51.304Z,5.12
2019-04-28T08:14:20.834Z,4.72
2019-04-28T08:16:50.364Z,5.58
2019-04-28T08:19:19.935Z,4.95
2019-04-28T08:21:49.392Z,5.00
2019-04-28T08:24:19.003Z,4.80
2019-04-28T08:26:48.421Z,5.12
2019-04-28T08:29:17.885Z,5.25
2019-04-28T08:31:59.994Z,5.10
2019-04-28T08:34:29.876Z,5.05
2019-04-28T08:36:59.348Z,5.97
2019-04-28T08:39:29.040Z,5.05
2019-04-28T08:41:58.534Z,5.53
2019-04-28T08:44:28.379Z,5.70
2019-04-28T08:46:57.979Z,6.30
2019-04-28T08:49:27.344Z,5.85
2019-04-28T08:51:58.154Z,6.13
2019-04-28T08:54:27.760Z,6.40
2019-04-28T08:56:57.444Z,6.08
2019-04-28T08:59:26.975Z,6.10
2019-04-28T09:01:56.418Z,6.30
2019-04-28T09:04:26.107Z,6.30
2019-04-28T09:06:55.509Z,6.22
2019-04-28T09:09:25.122Z,6.80
2019-04-28T09:11:54.845Z,6.42
2019-04-28T09:14:24.320Z,6.60
2019-04-28T09:16:54.063Z,7.87
2019-04-28T09:19:23.630Z,11.85
2019-04-28T09:21:53.079Z,7.58
2019-04-28T09:24:22.810Z,7.03
2019-04-28T09:26:52.273Z,7.42
2019-04-28T09:29:22.054Z,6.58
2019-04-28T09:31:52.715Z,7.28
2019-04-28T09:34:28.164Z,7.33
2019-04-28T09:36:53.649Z,7.17
2019-04-28T09:39:43.741Z,7.20
2019-04-28T09:42:31.013Z,7.40
2019-04-28T09:45:01.290Z,7.47
2019-04-28T09:47:31.178Z,7.83
2019-04-28T09:50:00.841Z,7.67
2019-04-28T09:52:30.311Z,7.10
2019-04-28T09:54:59.741Z,7.78
2019-04-28T09:57:29.465Z,8.03
2019-04-28T09:59:58.955Z,8.23
2019-04-28T10:02:28.410Z,8.48
2019-04-28T10:04:58.198Z,8.83
2019-04-28T10:07:27.648Z,8.53
2019-04-28T10:09:57.201Z,8.68
2019-04-28T10:12:27.548Z,9.08
2019-04-28T10:14:57.017Z,8.93
2019-04-28T10:17:26.425Z,8.33
2019-04-28T10:19:56.477Z,8.65
2019-04-28T10:22:26.066Z,8.45
2019-04-28T10:24:55.837Z,8.40
2019-04-28T10:27:25.284Z,8.93
2019-04-28T10:29:54.759Z,8.97
2019-04-28T10:32:24.470Z,8.43
2019-04-28T10:34:55.262Z,21.52
2019-04-28T10:37:25.285Z,7.95
2019-04-28T10:39:59.007Z,8.50
2019-04-28T10:42:28.447Z,8.30
2019-04-28T10:44:58.163Z,8.45
2019-04-28T10:47:27.786Z,8.38
2019-04-28T10:49:58.509Z,7.70
2019-04-28T10:52:27.944Z,7.60
2019-04-28T10:54:57.649Z,8.33
2019-04-28T10:57:27.344Z,7.95
2019-04-28T10:59:56.897Z,7.90
2019-04-28T11:02:26.358Z,8.20
2019-04-28T11:05:09.167Z,8.35
2019-04-28T11:07:38.952Z,7.87
2019-04-28T11:10:15.204Z,9.03
2019-04-28T11:12:44.695Z,10.70
2019-04-28T11:15:25.022Z,7.60
2019-04-28T11:17:54.640Z,7.58
2019-04-28T11:20:25.310Z,7.63
2019-04-28T11:22:54.855Z,7.65
2019-04-28T11:25:24.381Z,8.18
2019-04-28T11:27:55.563Z,9.18
2019-04-28T11:30:25.603Z,8.93
2019-04-28T11:33:09.877Z,46.13
2019-04-28T11:35:39.836Z,8.78
2019-04-28T11:38:09.512Z,8.68
2019-04-28T11:40:38.986Z,7.87
2019-04-28T11:43:08.720Z,8.15
2019-04-28T11:45:38.189Z,8.53
2019-04-28T11:48:07.804Z,9.38
2019-04-28T11:50:37.751Z,9.23
2019-04-28T11:53:07.171Z,9.18
2019-04-28T11:55:36.929Z,8.20
2019-04-28T11:58:06.866Z,8.95
2019-04-28T12:00:36.383Z,8.58
2019-04-28T12:03:05.831Z,12.40
2019-04-28T12:05:44.328Z,8.80
2019-04-28T12:08:14.100Z,8.95
2019-04-28T12:10:52.622Z,9.13
2019-04-28T12:13:43.946Z,8.00
2019-04-28T12:16:50.958Z,9.83
2019-04-28T12:19:45.371Z,8.58
2019-04-28T12:22:14.837Z,6.90
2019-04-28T12:24:44.323Z,7.67
2019-04-28T12:27:13.978Z,7.80
2019-04-28T12:29:43.428Z,7.05
2019-04-28T12:32:12.952Z,7.40
2019-04-28T12:34:42.457Z,6.85
2019-04-28T12:37:12.021Z,6.90
2019-04-28T12:39:41.571Z,7.00
2019-04-28T12:42:11.220Z,6.78
2019-04-28T12:44:40.827Z,8.08
2019-04-28T12:47:10.776Z,7.33
2019-04-28T12:50:02.257Z,7.35
2019-04-28T12:52:31.781Z,7.40
2019-04-28T12:55:01.270Z,7.90
2019-04-28T12:57:30.873Z,7.42
2019-04-28T13:00:15.840Z,7.15
2019-04-28T13:03:04.289Z,7.70
2019-04-28T13:05:36.374Z,7.55
2019-04-28T13:08:05.814Z,7.60
2019-04-28T13:10:35.307Z,6.97
2019-04-28T13:13:05.241Z,7.20
2019-04-28T13:15:34.809Z,7.80
2019-04-28T13:18:04.300Z,6.80
2019-04-28T13:20:33.990Z,7.60
2019-04-28T13:23:03.568Z,7.42
2019-04-28T13:25:33.295Z,8.08
2019-04-28T13:28:02.744Z,8.27
2019-04-28T13:30:32.242Z,8.10
2019-04-28T13:33:01.924Z,7.72
2019-04-28T13:35:31.702Z,8.00
2019-04-28T13:38:01.452Z,13.35
2019-04-28T13:40:33.775Z,7.47
2019-04-28T13:43:03.247Z,7.60
2019-04-28T13:45:32.849Z,8.30
2019-04-28T13:48:02.282Z,7.80
2019-04-28T13:50:39.196Z,7.90
2019-04-28T13:53:10.686Z,8.85
2019-04-28T13:56:05.407Z,9.40
2019-04-28T13:58:38.363Z,9.90
2019-04-28T14:01:33.144Z,8.95
2019-04-28T14:04:17.690Z,8.28
2019-04-28T14:06:49.914Z,8.80
2019-04-28T14:09:19.741Z,8.18
2019-04-28T14:11:49.307Z,9.10
2019-04-28T14:14:20.129Z,9.50
2019-04-28T14:16:49.603Z,8.98
2019-04-28T14:19:19.142Z,8.53
2019-04-28T14:21:48.893Z,8.65
2019-04-28T14:24:18.429Z,9.73
2019-04-28T14:26:48.152Z,10.15
2019-04-28T14:29:17.645Z,10.30
2019-04-28T14:31:47.113Z,8.55
2019-04-28T14:34:16.856Z,8.78
2019-04-28T14:36:46.342Z,9.95
2019-04-28T14:39:15.946Z,9.70
2019-04-28T14:41:45.545Z,10.30
2019-04-28T14:44:17.581Z,10.23
2019-04-28T14:46:46.136Z,10.75
2019-04-28T14:49:15.596Z,11.53
2019-04-28T14:51:45.262Z,12.13
2019-04-28T14:54:14.698Z,12.18
2019-04-28T14:56:44.225Z,15.23
2019-04-28T14:59:13.810Z,12.60
2019-04-28T15:02:08.379Z,13.48
2019-04-28T15:04:55.695Z,13.65
2019-04-28T15:07:42.885Z,14.30
2019-04-28T15:10:21.713Z,14.63
2019-04-28T15:12:51.595Z,15.23
2019-04-28T15:15:21.353Z,14.65
2019-04-28T15:17:50.875Z,22.20
2019-04-28T15:20:20.392Z,16.65
2019-04-28T15:22:50.163Z,15.63
2019-04-28T15:25:19.583Z,15.35
2019-04-28T15:27:49.065Z,16.15
2019-04-28T15:30:18.886Z,16.02
2019-04-28T15:32:48.420Z,16.25
2019-04-28T15:35:18.284Z,17.32
2019-04-28T15:37:47.755Z,17.63
2019-04-28T15:40:17.397Z,16.48
2019-04-28T15:42:46.838Z,17.32
2019-04-28T15:45:16.439Z,19.60
2019-04-28T15:47:47.328Z,16.90
2019-04-28T15:50:17.404Z,16.37
2019-04-28T15:52:47.207Z,16.13
2019-04-28T15:55:20.537Z,16.25
2019-04-28T15:57:50.070Z,16.67
2019-04-28T16:00:20.234Z,17.60
2019-04-28T16:02:49.658Z,17.23
2019-04-28T16:05:19.521Z,15.93
2019-04-28T16:07:48.973Z,15.10
2019-04-28T16:10:18.447Z,16.45
2019-04-28T16:12:48.210Z,16.00
2019-04-28T16:15:17.632Z,13.65
2019-04-28T16:17:47.413Z,12.53
2019-04-28T16:20:16.989Z,12.07
2019-04-28T16:22:46.485Z,12.18
2019-04-28T16:25:16.309Z,12.82
2019-04-28T16:27:45.764Z,12.23
2019-04-28T16:30:15.742Z,11.75
2019-04-28T16:32:45.197Z,11.83
2019-04-28T16:35:14.867Z,21.68
2019-04-28T16:37:44.343Z,11.85
2019-04-28T16:40:13.849Z,11.95
2019-04-28T16:42:49.678Z,12.25
2019-04-28T16:45:20.596Z,12.82
2019-04-28T16:47:50.042Z,13.28
2019-04-28T16:50:19.504Z,13.22
2019-04-28T16:52:49.386Z,13.70
2019-04-28T16:55:22.709Z,13.95
2019-04-28T16:58:05.426Z,13.55
2019-04-28T17:00:57.006Z,13.45
2019-04-28T17:03:28.045Z,12.93
2019-04-28T17:05:57.545Z,13.38
2019-04-28T17:08:27.057Z,13.70
2019-04-28T17:10:57.085Z,13.65
2019-04-28T17:13:26.559Z,12.95
2019-04-28T17:15:56.150Z,14.83
2019-04-28T17:18:25.767Z,13.48
2019-04-28T17:20:55.236Z,13.48
2019-04-28T17:23:24.912Z,13.50
2019-04-28T17:25:54.429Z,14.75
2019-04-28T17:28:23.872Z,13.78
2019-04-28T17:30:53.497Z,14.30
2019-04-28T17:33:22.920Z,13.35
2019-04-28T17:35:52.386Z,23.57
2019-04-28T17:38:22.155Z,16.37
2019-04-28T17:40:51.578Z,15.37
2019-04-28T17:43:21.035Z,19.30
2019-04-28T17:45:51.014Z,20.23
2019-04-28T17:48:25.755Z,16.57
2019-04-28T17:50:55.212Z,16.30
2019-04-28T17:53:24.625Z,15.70
2019-04-28T17:55:54.305Z,15.32
2019-04-28T17:58:23.807Z,16.17
2019-04-28T18:01:09.401Z,19.75
2019-04-28T18:03:52.822Z,17.23
2019-04-28T18:06:23.459Z,14.85
2019-04-28T18:08:53.011Z,16.27
2019-04-28T18:11:23.075Z,16.75
2019-04-28T18:13:52.591Z,19.95
2019-04-28T18:16:44.786Z,20.43
2019-04-28T18:19:14.498Z,25.90
2019-04-28T18:21:44.280Z,22.30
2019-04-28T18:24:13.785Z,16.73
2019-04-28T18:26:43.361Z,16.02
2019-04-28T18:29:12.914Z,15.23
2019-04-28T18:32:13.321Z,19.57
2019-04-28T18:34:54.550Z,19.67
2019-04-28T18:37:42.937Z,15.77
2019-04-28T18:40:34.174Z,16.85
2019-04-28T18:43:22.989Z,17.25
2019-04-28T18:45:52.448Z,16.65
2019-04-28T18:48:22.055Z,19.07
2019-04-28T18:50:51.503Z,19.02
2019-04-28T18:53:21.175Z,22.60
2019-04-28T18:55:50.598Z,23.83
2019-04-28T18:58:20.018Z,18.00
2019-04-28T19:00:57.948Z,21.65
2019-04-28T19:03:27.396Z,18.42
2019-04-28T19:05:56.964Z,19.27
2019-04-28T19:08:48.041Z,17.45
2019-04-28T19:11:12.187Z,18.23
2019-04-28T19:13:49.627Z,20.52
2019-04-28T19:16:37.518Z,20.05
2019-04-28T19:19:09.184Z,18.98
2019-04-28T19:21:38.630Z,17.70
2019-04-28T19:24:08.533Z,39.63
2019-04-28T19:26:38.011Z,24.18
2019-04-28T19:29:07.612Z,19.43
2019-04-28T19:31:38.998Z,19.30
2019-04-28T19:34:08.489Z,18.45
2019-04-28T19:36:38.200Z,19.25
2019-04-28T19:39:07.880Z,18.77
2019-04-28T19:41:37.365Z,24.63
2019-04-28T19:44:07.183Z,20.85
2019-04-28T19:46:36.668Z,22.10
2019-04-28T19:49:06.576Z,21.80
2019-04-28T19:51:36.010Z,20.70
2019-04-28T19:54:05.428Z,21.45
2019-04-28T19:56:40.223Z,21.90
2019-04-28T19:59:14.451Z,22.63
2019-04-28T20:01:44.601Z,23.38
2019-04-28T20:04:14.281Z,23.12
2019-04-28T20:06:43.722Z,24.97
2019-04-28T20:09:13.322Z,24.65
2019-04-28T20:11:43.085Z,25.40
2019-04-28T20:14:12.627Z,23.98
2019-04-28T20:16:42.078Z,24.00
2019-04-28T20:19:11.865Z,42.33
2019-04-28T20:21:41.431Z,25.45
2019-04-28T20:24:11.218Z,25.68
2019-04-28T20:26:40.654Z,28.67
2019-04-28T20:29:10.580Z,29.55
2019-04-28T20:31:40.058Z,29.65
2019-04-28T20:34:09.512Z,29.25
2019-04-28T20:36:46.750Z,29.72
2019-04-28T20:39:24.789Z,28.55
2019-04-28T20:41:54.327Z,30.50
2019-04-28T20:44:23.887Z,29.25
2019-04-28T20:46:53.773Z,29.35
2019-04-28T20:49:23.248Z,28.80
2019-04-28T20:51:52.692Z,28.87
2019-04-28T20:54:22.371Z,27.60
2019-04-28T20:56:51.815Z,26.80
2019-04-28T20:59:21.275Z,26.97
2019-04-28T21:01:50.843Z,29.03
2019-04-28T21:04:20.299Z,27.37
2019-04-28T21:06:49.735Z,28.83
2019-04-28T21:09:19.338Z,28.57
2019-04-28T21:11:48.794Z,27.43
2019-04-28T21:14:20.633Z,27.25
2019-04-28T21:16:49.389Z,28.25
2019-04-28T21:19:18.802Z,28.70
2019-04-28T21:21:48.655Z,26.85
2019-04-28T21:24:18.149Z,26.90
2019-04-28T21:26:48.548Z,28.02
2019-04-28T21:29:18.165Z,26.97
2019-04-28T21:31:47.619Z,27.22
2019-04-28T21:34:17.081Z,27.32
2019-04-28T21:36:46.583Z,27.30
2019-04-28T21:39:16.045Z,26.52
2019-04-28T21:41:45.513Z,25.75
2019-04-28T21:44:24.881Z,24.73
2019-04-28T21:47:10.633Z,25.23
2019-04-28T21:49:41.425Z,24.18
2019-04-28T21:52:10.887Z,25.35
2019-04-28T21:54:40.650Z,25.40
2019-04-28T21:57:10.048Z,25.93
2019-04-28T21:59:39.493Z,24.85
2019-04-28T22:02:09.643Z,25.62
2019-04-28T22:04:39.048Z,26.47
2019-04-28T22:07:08.699Z,26.68
2019-04-28T22:09:38.126Z,25.73
2019-04-28T22:12:07.717Z,27.98
2019-04-28T22:14:37.276Z,24.98
2019-04-28T22:17:06.761Z,25.80
2019-04-28T22:19:36.171Z,27.77
2019-04-28T22:22:05.943Z,31.00
2019-04-28T22:24:49.958Z,30.93
2019-04-28T22:27:27.940Z,31.23
2019-04-28T22:29:57.348Z,32.05
2019-04-28T22:32:26.782Z,29.25
2019-04-28T22:34:56.498Z,28.23
2019-04-28T22:37:26.020Z,28.77
2019-04-28T22:39:55.448Z,28.87
2019-04-28T22:42:25.141Z,28.38
2019-04-28T22:44:54.626Z,28.17
2019-04-28T22:47:24.181Z,28.20
2019-04-28T22:49:53.701Z,28.70
2019-04-28T22:52:23.119Z,27.73
2019-04-28T22:55:11.569Z,27.95
2019-04-28T22:57:59.977Z,28.90
2019-04-28T23:00:48.105Z,29.52
2019-04-28T23:03:29.290Z,30.37
2019-04-28T23:05:59.131Z,30.23
2019-04-28T23:08:28.680Z,28.65
2019-04-28T23:10:58.132Z,28.55
2019-04-28T23:13:27.773Z,29.27
2019-04-28T23:15:57.270Z,28.57
2019-04-28T23:18:27.268Z,30.00
2019-04-28T23:20:59.953Z,30.60
2019-04-28T23:23:29.893Z,29.15
2019-04-28T23:25:59.346Z,30.52
2019-04-28T23:28:29.246Z,29.50
2019-04-28T23:30:58.723Z,29.52
2019-04-28T23:33:28.323Z,30.32
2019-04-28T23:35:57.832Z,29.18
2019-04-28T23:38:27.347Z,29.45
2019-04-28T23:41:23.351Z,30.60
2019-04-28T23:43:52.740Z,31.12
2019-04-28T23:46:23.829Z,30.15
2019-04-28T23:48:53.318Z,30.32
2019-04-28T23:51:31.907Z,29.55
2019-04-28T23:54:06.101Z,29.52
2019-04-28T23:56:35.554Z,31.10
2019-04-28T23:59:05.075Z,31.97
